Kezdőlap
METAR-TAF:

METAR-TAF

Repülőterek :

Marrákes, Marokkó

földrajzi szélesség: 31-37N, földrajzi hosszúság: 008-02W, magasság: 468 m

Jelenlegi meteorológiai megfigyelések

A jelentés 36 perccel ezelõtt készült, 05:30 UTC
Különbözõ irányokból fújó szél 2 kt
Hőmérséklet 15°C
Páratartalom 67%
Légköri nyomás 1015 hPa
Látótávolság 10 km, vagy több
felhőtlen 1500 m magasságban, és nincs gomolyfelhõ

METAR: GMMX 230530Z VRB02KT CAVOK 15/09 Q1015 NOSIG

Idő: 07:06 (06:06 UTC)

Előrejelzés

A jelentés 1 órával és 6 perccel ezelõtt készült, 05:00 UTC
Az előrejelzés 23-én 06 óra UTC és 24-én 12 óra UTC között érvényes
Északkeleti szél 6 kt
Látótávolság: 8000 m

TAF: GMMX 230500Z 2306/2412 04006KT 8000 NSC

Meteorológiai megfigyelések és előrejelzések több, mint 4000 repülőtéren (METAR és TAF jelentéseket).

A térképen piros és sárga pontok jelzik az elérhető meteorológiai állomásokat.

Mozgassa az egeret a pont fölött, hogy megjelenjen az állomás neve.

Azután kattintson az időjárási megfigyelések és előrejelzések megtekintéséhez.

A térkép megváltoztatása: kattintson a fekete keresztel jelölt zöld gombra ráközelítéshez, a vonallal jelölt zöld gombra távolításhoz, vagy a zöld nyilakra a szomszédos térképek eléréséhez.


METAR-TAF: